Página principal
METAR-TAF:

METAR-TAF

Aeroportos :

Skagway, Alasca, Estados Unidos

latitude: 59-28N, longitude: 135-18W, altura: 16 m

Observação actual do tempo

O boletim foi feito há 51 minutos, às 08:53 UTC
Vento 3 kt de nordeste
Temperatura 2°C
Humidade 64%
Pressão 1031 hPa
Visibilidade: 16.1 km
Céu limpo

METAR: PAGY 190853Z AUTO 04003KT 10SM CLR 02/M04 A3044 RMK AO2 SLP306 T00171044 401331011 50004 TSNO

Hora: 01:44 (09:44 UTC)

Previsão

O boletim foi feito há 4 horas e 10 minutos, às 05:34 UTC
Previsão válida de 19 às 06 UTC a 20 às 06 UTC
Vento kt de norte
Visibilidade: 10 km
Céu limpo
A partir de 19 às 1000 UTC
Vento 4 kt de nordeste
Visibilidade: 10 km
Céu limpo
A partir de 19 às 2100 UTC
Vento 7 kt de sudoeste
Visibilidade: 10 km
Céu limpo
A partir de 20 às 0300 UTC
Vento 3 kt com direcção variável
Visibilidade: 10 km
Céu limpo

TAF: PAGY 190534Z 1906/2006 00000KT P6SM SKC FM191000 04004KT P6SM SKC FM192100 23007KT P6SM SKC FM200300 VRB03KT P6SM SKC AMD LTD TO CLD VIS AND WIND

Observações e previsões do tempo de mais de 4000 aeroportos (mensagens METAR e TAF).

As estações disponíveis são os pontos amarelos e vermelhos sobre o mapa.

Mova o rato sobre o mapa para ver o nome da estação.

Depois clique no ponto para visualizar as observações e previsões meteorológicas.

Para alterar o mapa : clique nos botões verdes com uma cruz preta para aumentar o zoom; no botão verde com uma pitada de zoom; ou nas setas verdes para mapas adjacentes.


METAR-TAF: